createdAt,value
2018-08-20T00:00:20.985Z,17.60
2018-08-20T00:02:49.206Z,17.60
2018-08-20T00:05:17.431Z,17.50
2018-08-20T00:07:45.875Z,17.40
2018-08-20T00:10:15.174Z,17.40
2018-08-20T00:12:44.138Z,17.20
2018-08-20T00:15:13.126Z,17.20
2018-08-20T00:17:42.531Z,17.20
2018-08-20T00:20:11.414Z,17.30
2018-08-20T00:22:41.939Z,17.40
2018-08-20T00:25:14.276Z,17.30
2018-08-20T00:27:43.075Z,17.30
2018-08-20T00:30:14.078Z,17.20
2018-08-20T00:32:45.063Z,17.10
2018-08-20T00:35:16.234Z,17.00
2018-08-20T00:37:46.493Z,16.90
2018-08-20T00:40:15.148Z,16.90
2018-08-20T00:42:43.835Z,16.90
2018-08-20T00:45:12.618Z,16.80
2018-08-20T00:47:41.749Z,16.90
2018-08-20T00:50:11.620Z,16.90
2018-08-20T00:52:40.965Z,17.00
2018-08-20T00:55:11.911Z,17.00
2018-08-20T00:57:41.412Z,17.00
2018-08-20T01:00:11.371Z,16.90
2018-08-20T01:02:40.626Z,16.90
2018-08-20T01:05:09.794Z,16.90
2018-08-20T01:07:38.686Z,16.80
2018-08-20T01:10:08.726Z,16.90
2018-08-20T01:12:37.548Z,16.90
2018-08-20T01:15:05.926Z,16.90
2018-08-20T01:17:34.163Z,17.00
2018-08-20T01:20:02.430Z,17.00
2018-08-20T01:22:30.763Z,17.10
2018-08-20T01:24:59.204Z,17.10
2018-08-20T01:27:29.114Z,17.00
2018-08-20T01:29:57.702Z,16.90
2018-08-20T01:32:26.026Z,16.70
2018-08-20T01:34:54.247Z,16.70
2018-08-20T01:37:22.647Z,16.70
2018-08-20T01:39:51.059Z,16.70
2018-08-20T01:42:19.559Z,16.60
2018-08-20T01:44:48.275Z,16.50
2018-08-20T01:47:16.480Z,16.50
2018-08-20T01:49:44.827Z,16.50
2018-08-20T01:52:13.355Z,16.40
2018-08-20T01:54:42.036Z,16.30
2018-08-20T01:57:10.895Z,16.30
2018-08-20T01:59:39.630Z,16.30
2018-08-20T02:02:08.672Z,16.50
2018-08-20T02:04:37.679Z,16.50
2018-08-20T02:07:06.235Z,16.50
2018-08-20T02:09:34.536Z,16.50
2018-08-20T02:12:02.754Z,16.50
2018-08-20T02:14:31.236Z,16.50
2018-08-20T02:16:59.683Z,16.30
2018-08-20T02:19:28.033Z,16.30
2018-08-20T02:21:56.316Z,16.40
2018-08-20T02:24:24.619Z,16.20
2018-08-20T02:26:52.823Z,16.20
2018-08-20T02:29:21.028Z,16.20
2018-08-20T02:31:49.222Z,16.10
2018-08-20T02:34:17.460Z,16.10
2018-08-20T02:36:45.890Z,16.10
2018-08-20T02:39:14.869Z,16.10
2018-08-20T02:41:43.850Z,16.20
2018-08-20T02:44:13.244Z,16.30
2018-08-20T02:46:53.093Z,16.50
2018-08-20T02:49:21.645Z,16.60
2018-08-20T02:51:50.759Z,16.60
2018-08-20T02:54:19.259Z,16.60
2018-08-20T02:56:47.724Z,16.50
2018-08-20T02:59:16.316Z,16.50
2018-08-20T03:01:45.031Z,16.50
2018-08-20T03:04:13.626Z,16.40
2018-08-20T03:06:42.318Z,16.40
2018-08-20T03:09:15.587Z,16.30
2018-08-20T03:11:44.308Z,16.20
2018-08-20T03:14:13.735Z,16.10
2018-08-20T03:16:42.468Z,16.10
2018-08-20T03:19:11.401Z,16.20
2018-08-20T03:21:40.547Z,16.20
2018-08-20T03:24:09.358Z,16.20
2018-08-20T03:26:38.872Z,16.20
2018-08-20T03:29:08.370Z,16.10
2018-08-20T03:31:36.816Z,16.00
2018-08-20T03:34:05.466Z,15.90
2018-08-20T03:36:33.940Z,15.90
2018-08-20T03:39:02.423Z,15.90
2018-08-20T03:41:31.142Z,15.80
2018-08-20T03:43:59.698Z,15.90
2018-08-20T03:46:28.624Z,15.90
2018-08-20T03:48:57.299Z,15.80
2018-08-20T03:51:25.935Z,15.80
2018-08-20T03:53:54.387Z,15.90
2018-08-20T03:56:22.736Z,16.00
2018-08-20T03:58:51.092Z,15.90
2018-08-20T04:01:19.556Z,15.80
2018-08-20T04:03:47.991Z,15.80
2018-08-20T04:06:16.466Z,15.90
2018-08-20T04:08:45.184Z,15.80
2018-08-20T04:11:13.916Z,15.90
2018-08-20T04:13:42.628Z,16.00
2018-08-20T04:16:11.467Z,16.00
2018-08-20T04:18:40.740Z,16.10
2018-08-20T04:21:09.632Z,16.10
2018-08-20T04:23:39.026Z,16.10
2018-08-20T04:26:07.983Z,16.10
2018-08-20T04:28:36.697Z,16.20
2018-08-20T04:31:05.181Z,16.20
2018-08-20T04:33:33.595Z,16.10
2018-08-20T04:36:02.062Z,16.00
2018-08-20T04:38:30.527Z,16.10
2018-08-20T04:40:59.124Z,16.10
2018-08-20T04:43:27.699Z,16.20
2018-08-20T04:45:56.238Z,16.30
2018-08-20T04:48:24.638Z,16.40
2018-08-20T04:50:53.218Z,16.50
2018-08-20T04:53:21.599Z,16.50
2018-08-20T04:55:50.012Z,16.70
2018-08-20T04:58:18.409Z,16.80
2018-08-20T05:00:46.828Z,16.90
2018-08-20T05:03:16.252Z,17.00
2018-08-20T05:05:45.277Z,17.10
2018-08-20T05:08:14.088Z,17.20
2018-08-20T05:10:42.749Z,17.30
2018-08-20T05:13:11.516Z,17.40
2018-08-20T05:15:40.299Z,17.50
2018-08-20T05:18:09.373Z,17.60
2018-08-20T05:20:38.469Z,17.70
2018-08-20T05:23:07.049Z,17.80
2018-08-20T05:25:35.443Z,17.90
2018-08-20T05:28:03.942Z,18.00
2018-08-20T05:30:32.411Z,18.20
2018-08-20T05:33:00.809Z,18.30
2018-08-20T05:35:29.479Z,18.30
2018-08-20T05:37:58.155Z,18.50
2018-08-20T05:40:26.588Z,18.50
2018-08-20T05:42:55.099Z,18.70
2018-08-20T05:45:23.530Z,18.80
2018-08-20T05:47:52.060Z,18.90
2018-08-20T05:50:20.545Z,19.10
2018-08-20T05:52:48.973Z,19.20
2018-08-20T05:55:17.459Z,19.30
2018-08-20T05:57:46.077Z,19.50
2018-08-20T06:00:16.651Z,19.60
2018-08-20T06:02:45.826Z,19.70
2018-08-20T06:05:14.472Z,19.70
2018-08-20T06:07:43.581Z,20.00
2018-08-20T06:10:12.174Z,20.40
2018-08-20T06:12:40.912Z,20.90
2018-08-20T06:15:12.485Z,21.90
2018-08-20T06:17:41.501Z,22.90
2018-08-20T06:20:16.491Z,23.80
2018-08-20T06:22:45.311Z,23.90
2018-08-20T06:25:14.522Z,24.90
2018-08-20T06:27:43.561Z,25.20
2018-08-20T06:30:15.454Z,25.70
2018-08-20T06:32:44.189Z,25.50
2018-08-20T06:35:13.129Z,26.20
2018-08-20T06:37:42.453Z,26.60
2018-08-20T06:40:12.977Z,27.80
2018-08-20T06:42:41.685Z,28.10
2018-08-20T06:45:15.005Z,27.70
2018-08-20T06:47:44.544Z,28.50
2018-08-20T06:50:13.583Z,27.80
2018-08-20T06:52:43.219Z,27.60
2018-08-20T06:55:12.900Z,27.80
2018-08-20T06:57:42.448Z,28.00
2018-08-20T07:00:12.718Z,28.10
2018-08-20T07:02:42.012Z,28.80
2018-08-20T07:05:10.924Z,29.80
2018-08-20T07:07:40.796Z,30.40
2018-08-20T07:10:12.383Z,30.10
2018-08-20T07:12:41.432Z,29.30
2018-08-20T07:15:12.350Z,30.40
2018-08-20T07:17:41.093Z,30.60
2018-08-20T07:20:12.211Z,28.60
2018-08-20T07:22:41.185Z,28.60
2018-08-20T07:25:10.312Z,28.70
2018-08-20T07:27:39.229Z,29.10
2018-08-20T07:30:10.142Z,28.70
2018-08-20T07:32:39.405Z,29.00
2018-08-20T07:35:10.036Z,28.00
2018-08-20T07:37:38.808Z,27.40
2018-08-20T07:40:08.554Z,28.30
2018-08-20T07:42:37.320Z,27.70
2018-08-20T07:45:06.677Z,27.90
2018-08-20T07:47:35.096Z,28.20
2018-08-20T07:50:03.785Z,28.50
2018-08-20T07:52:32.465Z,28.70
2018-08-20T07:55:01.109Z,28.40
2018-08-20T07:57:29.585Z,28.90
2018-08-20T07:59:58.201Z,31.50
2018-08-20T08:02:26.443Z,32.40
2018-08-20T08:04:54.646Z,32.80
2018-08-20T08:07:23.095Z,33.50
2018-08-20T08:09:51.327Z,32.10
2018-08-20T08:12:19.557Z,32.60
2018-08-20T08:14:47.776Z,32.00
2018-08-20T08:17:16.064Z,32.50
2018-08-20T08:19:44.546Z,33.00
2018-08-20T08:22:12.901Z,33.50
2018-08-20T08:24:41.523Z,33.20
2018-08-20T08:27:10.145Z,33.00
2018-08-20T08:29:38.719Z,32.60
2018-08-20T08:32:07.216Z,32.30
2018-08-20T08:34:35.949Z,32.50
2018-08-20T08:37:04.319Z,33.40
2018-08-20T08:39:32.632Z,32.90
2018-08-20T08:42:01.284Z,33.90
2018-08-20T08:44:29.717Z,33.20
2018-08-20T08:46:58.024Z,33.00
2018-08-20T08:49:26.250Z,34.20
2018-08-20T08:51:54.595Z,34.30
2018-08-20T08:54:22.820Z,34.30
2018-08-20T08:56:51.036Z,34.10
2018-08-20T08:59:19.296Z,34.40
2018-08-20T09:01:47.525Z,34.30
2018-08-20T09:04:15.951Z,34.70
2018-08-20T09:06:44.683Z,35.40
2018-08-20T09:09:13.813Z,35.20
2018-08-20T09:11:42.339Z,34.90
2018-08-20T09:14:11.015Z,34.70
2018-08-20T09:16:40.028Z,36.00
2018-08-20T09:19:09.691Z,36.40
2018-08-20T09:21:38.763Z,36.80
2018-08-20T09:24:07.704Z,37.20
2018-08-20T09:26:36.251Z,36.50
2018-08-20T09:29:04.583Z,35.40
2018-08-20T09:31:32.884Z,35.00
2018-08-20T09:34:01.255Z,35.50
2018-08-20T09:36:29.615Z,34.90
2018-08-20T09:38:58.204Z,34.40
2018-08-20T09:41:26.494Z,34.40
2018-08-20T09:43:54.801Z,34.80
2018-08-20T09:46:23.174Z,36.20
2018-08-20T09:48:54.977Z,35.00
2018-08-20T09:51:23.187Z,35.50
2018-08-20T09:53:51.527Z,35.90
2018-08-20T09:56:19.979Z,35.70
2018-08-20T09:58:48.196Z,35.70
2018-08-20T10:01:16.510Z,35.40
2018-08-20T10:03:45.467Z,35.00
2018-08-20T10:06:14.827Z,35.00
2018-08-20T10:08:43.263Z,36.70
2018-08-20T10:11:12.787Z,38.10
2018-08-20T10:13:41.608Z,36.60
2018-08-20T10:16:10.454Z,36.80
2018-08-20T10:18:39.919Z,37.40
2018-08-20T10:21:10.821Z,37.20
2018-08-20T10:23:39.932Z,36.90
2018-08-20T10:26:09.197Z,38.20
2018-08-20T10:28:38.027Z,38.90
2018-08-20T10:31:06.718Z,36.60
2018-08-20T10:33:35.056Z,36.20
2018-08-20T10:36:03.644Z,36.00
2018-08-20T10:38:31.960Z,36.40
2018-08-20T10:41:00.460Z,37.50
2018-08-20T10:43:29.119Z,37.60
2018-08-20T10:46:03.336Z,38.00
2018-08-20T10:48:31.837Z,38.40
2018-08-20T10:51:00.634Z,37.00
2018-08-20T10:53:29.182Z,36.40
2018-08-20T10:55:57.536Z,35.40
2018-08-20T10:58:25.803Z,35.20
2018-08-20T11:00:54.024Z,35.60
2018-08-20T11:03:22.236Z,36.80
2018-08-20T11:05:50.455Z,38.40
2018-08-20T11:08:18.859Z,37.40
2018-08-20T11:10:47.532Z,37.90
2018-08-20T11:13:16.375Z,36.90
2018-08-20T11:15:45.119Z,37.20
2018-08-20T11:18:13.724Z,37.10
2018-08-20T11:20:43.573Z,37.70
2018-08-20T11:23:12.557Z,37.10
2018-08-20T11:25:41.222Z,37.60
2018-08-20T11:28:10.095Z,38.50
2018-08-20T11:30:39.767Z,38.80
2018-08-20T11:33:09.271Z,37.80
2018-08-20T11:35:38.290Z,36.50
2018-08-20T11:38:07.147Z,36.20
2018-08-20T11:40:35.653Z,36.70
2018-08-20T11:43:03.999Z,38.10
2018-08-20T11:45:32.431Z,37.70
2018-08-20T11:48:01.440Z,37.40
2018-08-20T11:50:30.260Z,35.60
2018-08-20T11:52:58.594Z,35.40
2018-08-20T11:55:27.102Z,34.90
2018-08-20T11:57:58.514Z,35.40
2018-08-20T12:00:26.947Z,36.40
2018-08-20T12:02:55.164Z,37.80
2018-08-20T12:05:23.389Z,37.50
2018-08-20T12:07:51.676Z,37.50
2018-08-20T12:10:19.900Z,37.70
2018-08-20T12:12:48.363Z,38.10
2018-08-20T12:15:16.907Z,37.60
2018-08-20T12:17:45.475Z,37.10
2018-08-20T12:20:13.915Z,36.50
2018-08-20T12:22:42.715Z,35.20
2018-08-20T12:25:13.792Z,36.40
2018-08-20T12:27:43.415Z,36.80
2018-08-20T12:30:13.291Z,36.40
2018-08-20T12:32:42.584Z,36.00
2018-08-20T12:35:11.986Z,36.40
2018-08-20T12:37:42.196Z,37.40
2018-08-20T12:40:12.036Z,37.50
2018-08-20T12:42:49.051Z,37.90
2018-08-20T12:45:17.330Z,37.30
2018-08-20T12:47:45.827Z,36.40
2018-08-20T12:50:14.163Z,37.20
2018-08-20T12:52:42.935Z,36.50
2018-08-20T12:55:13.166Z,38.20
2018-08-20T12:57:43.454Z,37.80
2018-08-20T13:00:13.090Z,37.90
2018-08-20T13:02:42.310Z,38.90
2018-08-20T13:05:11.566Z,38.00
2018-08-20T13:07:41.496Z,37.50
2018-08-20T13:10:12.359Z,38.10
2018-08-20T13:12:42.114Z,37.90
2018-08-20T13:15:12.907Z,36.90
2018-08-20T13:17:42.120Z,37.20
2018-08-20T13:20:11.783Z,36.50
2018-08-20T13:22:42.053Z,37.30
2018-08-20T13:25:12.059Z,37.80
2018-08-20T13:27:43.753Z,36.50
2018-08-20T13:30:13.289Z,37.10
2018-08-20T13:32:42.929Z,38.50
2018-08-20T13:35:13.907Z,37.10
2018-08-20T13:37:43.843Z,37.00
2018-08-20T13:40:12.966Z,38.70
2018-08-20T13:42:43.072Z,38.30
2018-08-20T13:45:13.924Z,37.70
2018-08-20T13:47:43.423Z,36.80
2018-08-20T13:50:14.911Z,37.50
2018-08-20T13:52:46.750Z,38.20
2018-08-20T13:55:15.689Z,39.10
2018-08-20T13:57:47.564Z,38.50
2018-08-20T14:00:17.691Z,38.10
2018-08-20T14:02:46.155Z,38.40
2018-08-20T14:05:16.267Z,38.80
2018-08-20T14:07:45.765Z,39.70
2018-08-20T14:10:14.523Z,39.90
2018-08-20T14:12:43.916Z,39.00
2018-08-20T14:15:14.229Z,38.70
2018-08-20T14:17:44.093Z,37.60
2018-08-20T14:20:14.623Z,37.70
2018-08-20T14:22:44.887Z,38.40
2018-08-20T14:25:13.836Z,37.40
2018-08-20T14:27:43.147Z,37.10
2018-08-20T14:30:14.182Z,38.00
2018-08-20T14:32:43.692Z,36.90
2018-08-20T14:35:12.650Z,36.90
2018-08-20T14:37:42.608Z,37.00
2018-08-20T14:40:16.088Z,36.50
2018-08-20T14:42:45.123Z,35.40
2018-08-20T14:45:14.966Z,35.80
2018-08-20T14:47:44.402Z,35.60
2018-08-20T14:50:15.244Z,36.20
2018-08-20T14:52:45.244Z,35.80
2018-08-20T14:55:14.051Z,34.70
2018-08-20T14:57:44.079Z,34.10
2018-08-20T15:00:14.721Z,33.70
2018-08-20T15:02:44.302Z,32.90
2018-08-20T15:05:13.999Z,32.70
2018-08-20T15:07:43.168Z,32.80
2018-08-20T15:10:13.220Z,32.70
2018-08-20T15:12:43.773Z,32.50
2018-08-20T15:15:12.953Z,32.80
2018-08-20T15:17:43.285Z,32.80
2018-08-20T15:20:12.986Z,31.90
2018-08-20T15:22:43.681Z,32.00
2018-08-20T15:25:13.246Z,31.90
2018-08-20T15:27:43.472Z,31.60
2018-08-20T15:30:12.895Z,31.40
2018-08-20T15:32:43.379Z,31.20
2018-08-20T15:35:13.299Z,31.10
2018-08-20T15:37:43.442Z,31.00
2018-08-20T15:40:12.887Z,31.10
2018-08-20T15:42:42.381Z,31.30
2018-08-20T15:45:12.568Z,31.00
2018-08-20T15:47:42.831Z,31.10
2018-08-20T15:50:13.194Z,31.30
2018-08-20T15:52:42.710Z,31.30
2018-08-20T15:55:13.282Z,31.00
2018-08-20T15:57:43.372Z,31.00
2018-08-20T16:00:14.010Z,31.00
2018-08-20T16:02:43.195Z,30.70
2018-08-20T16:05:12.185Z,30.40
2018-08-20T16:07:41.327Z,30.30
2018-08-20T16:10:11.478Z,30.40
2018-08-20T16:12:40.958Z,30.20
2018-08-20T16:15:10.396Z,30.00
2018-08-20T16:17:39.332Z,29.90
2018-08-20T16:20:08.608Z,29.70
2018-08-20T16:22:37.856Z,29.70
2018-08-20T16:25:07.581Z,29.70
2018-08-20T16:27:36.532Z,29.70
2018-08-20T16:30:08.118Z,29.70
2018-08-20T16:32:37.579Z,29.60
2018-08-20T16:35:07.876Z,29.60
2018-08-20T16:37:36.251Z,29.50
2018-08-20T16:40:04.816Z,29.50
2018-08-20T16:42:33.010Z,29.40
2018-08-20T16:45:01.248Z,29.40
2018-08-20T16:47:29.462Z,29.30
2018-08-20T16:49:57.727Z,29.20
2018-08-20T16:52:25.998Z,28.90
2018-08-20T16:54:54.300Z,28.70
2018-08-20T16:57:26.308Z,28.70
2018-08-20T16:59:54.580Z,28.60
2018-08-20T17:02:28.082Z,28.50
2018-08-20T17:04:56.358Z,28.30
2018-08-20T17:07:24.592Z,28.20
2018-08-20T17:09:52.848Z,28.00
2018-08-20T17:12:21.071Z,27.90
2018-08-20T17:14:49.482Z,27.80
2018-08-20T17:17:17.746Z,27.70
2018-08-20T17:19:46.965Z,27.50
2018-08-20T17:22:15.806Z,27.40
2018-08-20T17:24:44.540Z,27.30
2018-08-20T17:27:13.128Z,27.30
2018-08-20T17:29:41.911Z,27.10
2018-08-20T17:32:10.817Z,27.00
2018-08-20T17:34:41.243Z,26.90
2018-08-20T17:37:10.852Z,26.70
2018-08-20T17:40:02.467Z,26.60
2018-08-20T17:42:32.013Z,26.50
2018-08-20T17:45:00.777Z,26.30
2018-08-20T17:47:29.678Z,26.20
2018-08-20T17:49:58.816Z,26.10
2018-08-20T17:52:30.798Z,26.00
2018-08-20T17:55:00.702Z,25.90
2018-08-20T17:57:28.866Z,25.70
2018-08-20T18:01:07.158Z,25.60
2018-08-20T18:03:37.064Z,25.40
2018-08-20T18:06:09.670Z,25.20
2018-08-20T18:08:38.955Z,25.00
2018-08-20T18:11:08.212Z,24.80
2018-08-20T18:13:46.148Z,24.60
2018-08-20T18:16:17.635Z,24.50
2018-08-20T18:18:47.468Z,24.30
2018-08-20T18:21:16.136Z,24.10
2018-08-20T18:23:45.211Z,24.00
2018-08-20T18:26:13.692Z,23.90
2018-08-20T18:28:48.023Z,23.80
2018-08-20T18:31:28.063Z,23.70
2018-08-20T18:33:56.321Z,23.60
2018-08-20T18:36:25.774Z,23.40
2018-08-20T18:38:56.531Z,23.30
2018-08-20T18:42:08.154Z,23.10
2018-08-20T18:44:37.267Z,22.90
2018-08-20T18:47:07.792Z,22.80
2018-08-20T18:49:48.518Z,22.70
2018-08-20T18:52:17.351Z,22.70
2018-08-20T18:54:46.919Z,22.60
2018-08-20T18:57:17.329Z,22.50
2018-08-20T18:59:45.854Z,22.40
2018-08-20T19:02:26.147Z,22.10
2018-08-20T19:04:54.400Z,22.00
2018-08-20T19:07:22.651Z,22.00
2018-08-20T19:09:50.867Z,21.90
2018-08-20T19:12:19.083Z,21.80
2018-08-20T19:14:47.305Z,21.60
2018-08-20T19:17:34.278Z,21.50
2018-08-20T19:20:02.575Z,21.50
2018-08-20T19:22:31.099Z,21.40
2018-08-20T19:24:59.343Z,21.40
2018-08-20T19:27:29.778Z,21.30
2018-08-20T19:30:00.708Z,21.10
2018-08-20T19:32:39.060Z,21.00
2018-08-20T19:35:08.209Z,20.90
2018-08-20T19:37:37.229Z,20.80
2018-08-20T19:40:10.556Z,20.70
2018-08-20T19:42:39.751Z,20.70
2018-08-20T19:45:11.325Z,20.70
2018-08-20T19:47:39.940Z,20.70
2018-08-20T19:50:10.121Z,20.80
2018-08-20T19:52:39.036Z,20.70
2018-08-20T19:55:10.785Z,20.60
2018-08-20T19:57:39.998Z,20.50
2018-08-20T20:00:13.500Z,20.50
2018-08-20T20:02:44.251Z,20.40
2018-08-20T20:05:14.136Z,20.40
2018-08-20T20:08:07.695Z,20.30
2018-08-20T20:10:40.609Z,20.30
2018-08-20T20:13:10.849Z,20.20
2018-08-20T20:15:43.862Z,20.10
2018-08-20T20:18:20.257Z,20.00
2018-08-20T20:20:48.479Z,19.90
2018-08-20T20:23:17.773Z,19.80
2018-08-20T20:25:47.288Z,19.70
2018-08-20T20:28:16.695Z,19.70
2018-08-20T20:30:45.953Z,19.70
2018-08-20T20:33:15.029Z,19.60
2018-08-20T20:35:44.992Z,19.50
2018-08-20T20:38:14.515Z,19.40
2018-08-20T20:40:43.604Z,19.30
2018-08-20T20:43:13.486Z,19.30
2018-08-20T20:45:43.949Z,19.20
2018-08-20T20:48:13.674Z,19.20
2018-08-20T20:50:43.345Z,19.10
2018-08-20T20:53:13.971Z,19.10
2018-08-20T20:55:43.181Z,19.00
2018-08-20T20:58:20.113Z,19.00
2018-08-20T21:00:49.036Z,19.00
2018-08-20T21:03:17.593Z,18.90
2018-08-20T21:05:46.394Z,18.80
2018-08-20T21:08:15.456Z,18.80
2018-08-20T21:10:50.616Z,18.70
2018-08-20T21:13:20.505Z,18.70
2018-08-20T21:15:55.544Z,18.70
2018-08-20T21:18:24.030Z,18.60
2018-08-20T21:20:53.469Z,18.60
2018-08-20T21:23:21.932Z,18.50
2018-08-20T21:25:50.457Z,18.40
2018-08-20T21:28:18.788Z,18.40
2018-08-20T21:30:47.599Z,18.30
2018-08-20T21:33:16.296Z,18.30
2018-08-20T21:35:47.977Z,18.30
2018-08-20T21:38:16.818Z,18.30
2018-08-20T21:40:46.060Z,18.30
2018-08-20T21:43:14.997Z,18.30
2018-08-20T21:45:44.254Z,18.10
2018-08-20T21:48:13.680Z,18.10
2018-08-20T21:50:43.384Z,18.00
2018-08-20T21:53:13.484Z,17.90
2018-08-20T21:55:42.835Z,17.90
2018-08-20T21:58:12.530Z,17.90
2018-08-20T22:00:42.549Z,18.00
2018-08-20T22:03:12.552Z,17.90
2018-08-20T22:05:42.490Z,17.90
2018-08-20T22:08:12.492Z,17.80
2018-08-20T22:10:42.580Z,17.80
2018-08-20T22:13:12.623Z,17.70
2018-08-20T22:15:42.700Z,17.60
2018-08-20T22:18:12.469Z,17.60
2018-08-20T22:20:42.021Z,17.60
2018-08-20T22:23:25.192Z,17.60
2018-08-20T22:25:42.327Z,17.50
2018-08-20T22:28:12.425Z,17.50
2018-08-20T22:30:45.975Z,17.40
2018-08-20T22:33:15.097Z,17.40
2018-08-20T22:35:44.383Z,17.30
2018-08-20T22:38:13.727Z,17.20
2018-08-20T22:40:43.507Z,17.10
2018-08-20T22:43:13.089Z,17.00
2018-08-20T22:45:42.593Z,17.00
2018-08-20T22:48:12.243Z,16.90
2018-08-20T22:50:41.728Z,16.90
2018-08-20T22:53:11.413Z,16.90
2018-08-20T22:55:50.175Z,16.80
2018-08-20T22:58:18.645Z,16.80
2018-08-20T23:00:47.200Z,16.70
2018-08-20T23:03:16.055Z,16.70
2018-08-20T23:05:44.984Z,16.70
2018-08-20T23:08:17.724Z,16.70
2018-08-20T23:10:46.440Z,16.80
2018-08-20T23:13:15.464Z,16.70
2018-08-20T23:15:44.336Z,16.70
2018-08-20T23:18:13.806Z,16.70
2018-08-20T23:20:43.119Z,16.60
2018-08-20T23:23:12.853Z,16.60
2018-08-20T23:25:42.496Z,16.70
2018-08-20T23:28:12.278Z,16.60
2018-08-20T23:30:42.906Z,16.50
2018-08-20T23:33:12.720Z,16.40
2018-08-20T23:35:42.496Z,16.30
2018-08-20T23:38:12.240Z,16.30
2018-08-20T23:40:42.076Z,16.30
2018-08-20T23:43:11.612Z,16.30
2018-08-20T23:45:41.323Z,16.30
2018-08-20T23:48:10.473Z,16.40
2018-08-20T23:50:40.191Z,16.40
2018-08-20T23:53:10.756Z,16.40
2018-08-20T23:55:40.534Z,16.30
2018-08-20T23:58:11.252Z,16.30
